createdAt,value
2022-11-13T00:02:40.731Z,8.23
2022-11-13T00:05:46.815Z,9.23
2022-11-13T00:08:55.905Z,8.07
2022-11-13T00:12:02.134Z,10.10
2022-11-13T00:15:08.693Z,7.37
2022-11-13T00:18:16.083Z,9.93
2022-11-13T00:21:25.153Z,10.80
2022-11-13T00:24:31.034Z,10.17
2022-11-13T00:27:37.350Z,10.80
2022-11-13T00:30:43.344Z,8.73
2022-11-13T00:37:17.574Z,7.93
2022-11-13T00:40:23.506Z,7.30
2022-11-13T00:43:29.663Z,8.47
2022-11-13T00:46:35.954Z,7.87
2022-11-13T00:49:43.379Z,9.43
2022-11-13T00:52:49.621Z,8.40
2022-11-13T00:55:55.697Z,8.83
2022-11-13T00:59:01.829Z,7.57
2022-11-13T01:02:07.907Z,7.67
2022-11-13T01:05:15.523Z,9.80
2022-11-13T01:08:21.670Z,8.97
2022-11-13T01:11:30.485Z,8.40
2022-11-13T01:14:36.966Z,8.10
2022-11-13T01:17:43.237Z,6.60
2022-11-13T01:20:50.817Z,7.27
2022-11-13T01:23:57.600Z,7.10
2022-11-13T01:27:03.879Z,7.40
2022-11-13T01:30:10.978Z,8.33
2022-11-13T01:33:16.900Z,12.47
2022-11-13T01:36:26.683Z,8.27
2022-11-13T01:39:33.347Z,8.00
2022-11-13T01:42:39.474Z,12.43
2022-11-13T01:46:14.718Z,10.97
2022-11-13T01:49:32.266Z,6.93
2022-11-13T01:52:44.048Z,7.13
2022-11-13T01:55:50.451Z,7.87
2022-11-13T01:59:00.416Z,7.90
2022-11-13T02:02:06.723Z,8.50
2022-11-13T02:05:13.214Z,9.53
2022-11-13T02:08:21.037Z,8.27
2022-11-13T02:11:27.200Z,9.40
2022-11-13T02:14:33.808Z,8.20
2022-11-13T02:17:44.221Z,8.20
2022-11-13T02:20:57.721Z,7.77
2022-11-13T02:24:17.541Z,7.60
2022-11-13T02:27:30.459Z,6.63
2022-11-13T02:30:37.824Z,6.57
2022-11-13T02:33:43.927Z,6.73
2022-11-13T02:36:50.294Z,7.30
2022-11-13T02:39:57.597Z,8.47
2022-11-13T02:43:03.842Z,8.03
2022-11-13T02:46:10.157Z,8.50
2022-11-13T02:49:16.156Z,9.00
2022-11-13T02:52:22.262Z,7.67
2022-11-13T02:55:29.876Z,8.17
2022-11-13T02:58:36.203Z,7.13
2022-11-13T03:01:42.404Z,6.33
2022-11-13T03:05:11.471Z,5.93
2022-11-13T03:08:14.734Z,6.83
2022-11-13T03:11:22.605Z,7.63
2022-11-13T03:14:28.932Z,6.37
2022-11-13T03:17:35.568Z,6.60
2022-11-13T03:20:43.924Z,6.13
2022-11-13T03:23:50.255Z,9.23
2022-11-13T03:26:57.755Z,7.67
2022-11-13T03:30:04.050Z,6.57
2022-11-13T03:33:10.168Z,5.43
2022-11-13T03:36:16.659Z,6.27
2022-11-13T03:39:23.159Z,6.60
2022-11-13T03:42:30.778Z,8.83
2022-11-13T03:45:37.252Z,8.17
2022-11-13T03:48:43.384Z,8.50
2022-11-13T03:51:49.360Z,8.27
2022-11-13T03:54:55.193Z,18.77
2022-11-13T03:58:02.745Z,11.97
2022-11-13T04:01:08.825Z,8.37
2022-11-13T04:04:15.626Z,16.13
2022-11-13T04:07:21.654Z,10.00
2022-11-13T04:10:28.166Z,12.97
2022-11-13T04:13:35.879Z,15.77
2022-11-13T04:16:41.968Z,27.70
2022-11-13T04:19:48.166Z,31.73
2022-11-13T04:22:54.141Z,23.40
2022-11-13T04:26:00.556Z,17.80
2022-11-13T04:29:08.428Z,14.20
2022-11-13T04:32:14.541Z,9.23
2022-11-13T04:35:20.614Z,6.63
2022-11-13T04:38:26.805Z,8.30
2022-11-13T04:41:55.173Z,7.73
2022-11-13T04:45:03.193Z,7.63
2022-11-13T04:48:09.652Z,15.07
2022-11-13T04:51:15.758Z,15.47
2022-11-13T04:54:27.369Z,14.97
2022-11-13T04:57:34.876Z,10.47
2022-11-13T05:00:42.309Z,13.30
2022-11-13T05:03:48.460Z,7.40
2022-11-13T05:06:54.741Z,17.13
2022-11-13T05:10:01.049Z,27.17
2022-11-13T05:13:07.137Z,23.80
2022-11-13T05:16:16.150Z,23.03
2022-11-13T05:19:22.478Z,12.70
2022-11-13T05:22:28.637Z,10.50
2022-11-13T05:25:34.574Z,15.63
2022-11-13T05:28:40.996Z,14.83
2022-11-13T05:31:48.821Z,20.23
2022-11-13T05:34:54.889Z,19.83
2022-11-13T05:38:02.119Z,18.23
2022-11-13T05:41:10.270Z,22.57
2022-11-13T05:44:16.358Z,22.30
2022-11-13T05:47:23.783Z,26.13
2022-11-13T05:50:30.074Z,27.30
2022-11-13T05:53:36.942Z,25.73
2022-11-13T05:56:43.229Z,40.90
2022-11-13T05:59:49.185Z,29.87
2022-11-13T06:02:56.605Z,19.83
2022-11-13T06:06:03.021Z,20.87
2022-11-13T06:09:09.505Z,25.60
2022-11-13T06:12:15.611Z,24.20
2022-11-13T06:15:21.801Z,21.57
2022-11-13T06:18:29.732Z,24.37
2022-11-13T06:21:38.916Z,23.20
2022-11-13T06:24:45.124Z,21.40
2022-11-13T06:27:51.167Z,19.50
2022-11-13T06:30:57.270Z,23.90
2022-11-13T06:34:06.135Z,19.80
2022-11-13T06:37:12.317Z,17.23
2022-11-13T06:40:18.534Z,16.80
2022-11-13T06:43:24.521Z,20.97
2022-11-13T06:46:31.101Z,26.27
2022-11-13T06:49:38.707Z,21.00
2022-11-13T06:52:44.990Z,20.80
2022-11-13T06:55:52.147Z,15.63
2022-11-13T06:58:58.533Z,13.53
2022-11-13T07:02:04.780Z,10.63
2022-11-13T07:05:12.501Z,12.10
2022-11-13T07:08:19.699Z,13.60
2022-11-13T07:11:25.779Z,25.33
2022-11-13T07:14:32.202Z,27.53
2022-11-13T07:17:38.250Z,28.67
2022-11-13T07:20:46.163Z,32.23
2022-11-13T07:23:52.887Z,30.50
2022-11-13T07:26:59.491Z,28.53
2022-11-13T07:30:07.530Z,33.40
2022-11-13T07:33:13.894Z,24.63
2022-11-13T07:36:21.679Z,30.27
2022-11-13T07:39:28.049Z,24.77
2022-11-13T07:42:34.446Z,22.47
2022-11-13T07:45:40.844Z,26.27
2022-11-13T07:48:46.890Z,23.70
2022-11-13T07:51:54.297Z,22.33
2022-11-13T07:55:00.623Z,18.27
2022-11-13T07:58:07.158Z,20.50
2022-11-13T08:01:13.377Z,15.50
2022-11-13T08:04:19.709Z,11.33
2022-11-13T08:07:27.296Z,7.07
2022-11-13T08:10:33.991Z,6.43
2022-11-13T08:13:40.252Z,6.20
2022-11-13T08:16:46.402Z,5.73
2022-11-13T08:19:52.694Z,6.23
2022-11-13T08:23:01.192Z,4.87
2022-11-13T08:26:07.917Z,4.83
2022-11-13T08:29:14.373Z,7.30
2022-11-13T08:32:22.661Z,5.80
2022-11-13T08:35:29.718Z,5.47
2022-11-13T08:38:37.528Z,4.37
2022-11-13T08:41:44.062Z,4.70
2022-11-13T08:44:50.360Z,4.43
2022-11-13T08:48:00.013Z,5.80
2022-11-13T08:51:06.649Z,4.60
2022-11-13T08:54:14.537Z,6.03
2022-11-13T08:57:20.791Z,5.43
2022-11-13T09:00:27.561Z,5.40
2022-11-13T09:03:36.342Z,5.80
2022-11-13T09:06:43.012Z,5.03
2022-11-13T09:09:50.923Z,4.50
2022-11-13T09:12:59.271Z,4.97
2022-11-13T09:16:06.062Z,5.07
2022-11-13T09:19:12.302Z,6.33
2022-11-13T09:22:18.402Z,7.77
2022-11-13T09:25:26.405Z,5.93
2022-11-13T09:28:32.805Z,6.13
2022-11-13T09:31:41.284Z,6.20
2022-11-13T09:34:47.727Z,10.00
2022-11-13T09:37:53.738Z,7.40
2022-11-13T09:41:06.961Z,6.40
2022-11-13T09:44:17.410Z,5.83
2022-11-13T09:47:29.193Z,6.43
2022-11-13T09:50:35.589Z,5.73
2022-11-13T09:53:42.892Z,5.10
2022-11-13T09:56:58.133Z,5.57
2022-11-13T10:00:12.014Z,6.10
2022-11-13T10:04:00.733Z,6.57
2022-11-13T10:07:06.889Z,6.93
2022-11-13T10:10:33.433Z,6.63
2022-11-13T10:13:47.091Z,6.40
2022-11-13T10:16:58.512Z,6.70
2022-11-13T10:20:09.671Z,6.70
2022-11-13T10:23:20.584Z,14.80
2022-11-13T10:26:30.016Z,7.73
2022-11-13T10:29:38.281Z,7.83
2022-11-13T10:32:45.571Z,7.30
2022-11-13T10:35:58.375Z,6.97
2022-11-13T10:39:07.552Z,7.30
2022-11-13T10:42:23.484Z,7.13
2022-11-13T10:45:31.361Z,6.97
2022-11-13T10:48:38.233Z,6.77
2022-11-13T10:51:44.896Z,7.10
2022-11-13T10:54:51.893Z,5.30
2022-11-13T10:58:00.050Z,6.37
2022-11-13T11:01:17.143Z,6.27
2022-11-13T11:04:27.431Z,6.03
2022-11-13T11:07:41.648Z,5.57
2022-11-13T11:11:15.893Z,6.47
2022-11-13T11:14:28.163Z,5.77
2022-11-13T11:17:43.685Z,5.70
2022-11-13T11:20:56.157Z,5.00
2022-11-13T11:24:13.623Z,6.30
2022-11-13T11:27:24.165Z,7.40
2022-11-13T11:30:36.728Z,6.10
2022-11-13T11:33:51.592Z,6.43
2022-11-13T11:37:05.261Z,5.87
2022-11-13T11:40:23.178Z,6.43
2022-11-13T11:43:39.165Z,6.50
2022-11-13T11:46:46.860Z,6.60
2022-11-13T11:49:55.734Z,5.50
2022-11-13T11:53:07.564Z,4.37
2022-11-13T11:56:24.773Z,4.87
2022-11-13T11:59:51.409Z,6.50
2022-11-13T12:03:11.695Z,7.37
2022-11-13T12:06:29.144Z,7.27
2022-11-13T12:09:40.092Z,5.23
2022-11-13T12:13:12.474Z,5.90
2022-11-13T12:16:28.472Z,9.73
2022-11-13T12:19:53.228Z,5.60
2022-11-13T12:23:12.174Z,7.93
2022-11-13T12:26:24.465Z,5.93
2022-11-13T12:29:46.606Z,8.83
2022-11-13T12:33:17.523Z,9.47
2022-11-13T12:36:24.934Z,8.80
2022-11-13T12:39:40.935Z,20.93
2022-11-13T12:42:51.555Z,18.23
2022-11-13T12:46:01.203Z,13.37
2022-11-13T12:49:27.147Z,11.27
2022-11-13T12:52:33.583Z,9.23
2022-11-13T12:55:42.381Z,8.93
2022-11-13T12:59:23.609Z,8.90
2022-11-13T13:02:40.563Z,6.40
2022-11-13T13:06:03.877Z,5.07
2022-11-13T13:09:39.370Z,5.23
2022-11-13T13:12:56.330Z,5.10
2022-11-13T13:16:05.712Z,5.57
2022-11-13T13:19:26.522Z,5.87
2022-11-13T13:22:35.365Z,5.20
2022-11-13T13:25:42.413Z,8.63
2022-11-13T13:28:52.551Z,7.03
2022-11-13T13:32:11.726Z,10.27
2022-11-13T13:35:25.193Z,13.00
2022-11-13T13:38:39.308Z,16.40
2022-11-13T13:42:01.659Z,16.30
2022-11-13T13:45:25.296Z,9.17
2022-11-13T13:48:33.184Z,9.57
2022-11-13T13:51:44.226Z,8.57
2022-11-13T13:54:50.651Z,8.83
2022-11-13T13:57:59.347Z,10.50
2022-11-13T14:01:20.227Z,15.27
2022-11-13T14:04:29.587Z,13.70
2022-11-13T14:07:35.973Z,11.20
2022-11-13T14:10:42.325Z,18.63
2022-11-13T14:13:48.361Z,12.37
2022-11-13T14:16:57.851Z,9.50
2022-11-13T14:20:04.602Z,8.73
2022-11-13T14:23:14.209Z,10.07
2022-11-13T14:26:21.921Z,19.23
2022-11-13T14:29:36.272Z,12.93
2022-11-13T14:32:47.173Z,20.10
2022-11-13T14:35:56.953Z,25.70
2022-11-13T14:39:04.216Z,35.57
2022-11-13T14:42:19.778Z,30.43
2022-11-13T14:45:27.807Z,28.97
2022-11-13T14:48:36.361Z,18.23
2022-11-13T14:51:43.185Z,17.23
2022-11-13T14:55:16.148Z,12.47
2022-11-13T14:58:15.953Z,8.20
2022-11-13T15:01:25.079Z,9.50
2022-11-13T15:04:37.838Z,24.93
2022-11-13T15:07:47.263Z,11.37
2022-11-13T15:10:53.926Z,10.70
2022-11-13T15:14:04.167Z,13.67
2022-11-13T15:17:16.963Z,18.67
2022-11-13T15:20:27.889Z,17.67
2022-11-13T15:23:35.117Z,13.23
2022-11-13T15:26:41.653Z,15.40
2022-11-13T15:29:48.261Z,19.47
2022-11-13T15:32:56.642Z,13.37
2022-11-13T15:36:04.786Z,13.70
2022-11-13T15:39:18.520Z,16.40
2022-11-13T15:42:33.049Z,24.30
2022-11-13T15:45:43.997Z,22.80
2022-11-13T15:48:51.298Z,29.67
2022-11-13T15:51:59.252Z,31.97
2022-11-13T15:55:14.393Z,31.93
2022-11-13T15:58:20.920Z,28.10
2022-11-13T16:01:27.253Z,38.97
2022-11-13T16:04:54.598Z,35.30
2022-11-13T16:08:01.252Z,36.67
2022-11-13T16:11:07.727Z,41.03
2022-11-13T16:14:14.010Z,34.23
2022-11-13T16:17:21.192Z,33.13
2022-11-13T16:20:27.051Z,29.27
2022-11-13T16:23:49.028Z,27.97
2022-11-13T16:26:58.629Z,29.80
2022-11-13T16:30:07.112Z,26.93
2022-11-13T16:33:14.053Z,32.50
2022-11-13T16:36:22.612Z,35.10
2022-11-13T16:39:30.182Z,35.00
2022-11-13T16:42:36.231Z,34.43
2022-11-13T16:45:42.289Z,40.40
2022-11-13T16:48:48.962Z,42.07
2022-11-13T16:51:55.279Z,41.07
2022-11-13T16:55:06.564Z,38.53
2022-11-13T16:58:14.906Z,33.07
2022-11-13T17:01:22.501Z,36.40
2022-11-13T17:04:29.015Z,38.17
2022-11-13T17:07:35.183Z,30.23
2022-11-13T17:10:42.884Z,34.03
2022-11-13T17:13:51.010Z,24.80
2022-11-13T17:16:57.270Z,44.47
2022-11-13T17:20:03.241Z,53.63
2022-11-13T17:23:15.198Z,67.87
2022-11-13T17:26:22.775Z,26.47
2022-11-13T17:29:29.011Z,29.37
2022-11-13T17:32:35.007Z,30.13
2022-11-13T17:35:41.064Z,34.43
2022-11-13T17:38:47.065Z,29.60
2022-11-13T17:41:54.728Z,36.90
2022-11-13T17:45:00.670Z,34.67
2022-11-13T17:48:06.864Z,33.90
2022-11-13T17:51:14.936Z,33.90
2022-11-13T17:54:21.128Z,33.97
2022-11-13T17:57:28.676Z,34.60
2022-11-13T18:00:35.257Z,46.63
2022-11-13T18:03:41.986Z,49.23
2022-11-13T18:06:48.045Z,45.87
2022-11-13T18:09:54.523Z,36.03
2022-11-13T18:13:02.222Z,25.80
2022-11-13T18:16:12.946Z,19.57
2022-11-13T18:19:19.639Z,26.97
2022-11-13T18:22:26.031Z,29.90
2022-11-13T18:25:35.456Z,39.67
2022-11-13T18:28:45.949Z,35.47
2022-11-13T18:31:52.269Z,38.43
2022-11-13T18:34:58.601Z,30.43
2022-11-13T18:38:04.725Z,31.97
2022-11-13T18:41:13.943Z,33.03
2022-11-13T18:44:21.593Z,34.97
2022-11-13T18:47:27.988Z,77.63
2022-11-13T18:50:34.123Z,57.07
2022-11-13T18:53:40.606Z,71.37
2022-11-13T18:56:48.257Z,102.13
2022-11-13T18:59:56.078Z,77.67
2022-11-13T19:03:04.150Z,51.30
2022-11-13T19:06:12.861Z,34.67
2022-11-13T19:09:19.495Z,30.13
2022-11-13T19:12:25.765Z,27.90
2022-11-13T19:15:34.380Z,31.30
2022-11-13T19:18:43.146Z,23.60
2022-11-13T19:21:50.094Z,29.73
2022-11-13T19:24:56.782Z,29.17
2022-11-13T19:28:03.518Z,25.43
2022-11-13T19:31:14.087Z,18.43
2022-11-13T19:34:20.360Z,19.40
2022-11-13T19:37:26.529Z,27.60
2022-11-13T19:40:32.482Z,28.00
2022-11-13T19:43:41.200Z,28.30
2022-11-13T19:46:50.665Z,40.70
2022-11-13T19:49:57.018Z,32.57
2022-11-13T19:53:03.398Z,16.77
2022-11-13T19:56:09.971Z,15.93
2022-11-13T19:59:16.390Z,21.00
2022-11-13T20:02:24.342Z,29.80
2022-11-13T20:05:30.590Z,38.27
2022-11-13T20:08:37.597Z,34.37
2022-11-13T20:11:45.280Z,33.63
2022-11-13T20:14:52.330Z,34.97
2022-11-13T20:17:59.945Z,33.37
2022-11-13T20:21:07.400Z,31.47
2022-11-13T20:24:13.916Z,31.80
2022-11-13T20:27:20.114Z,37.63
2022-11-13T20:30:26.239Z,18.47
2022-11-13T20:33:34.754Z,14.27
2022-11-13T20:36:40.750Z,14.10
2022-11-13T20:39:46.777Z,9.30
2022-11-13T20:42:52.748Z,19.00
2022-11-13T20:46:03.395Z,17.20
2022-11-13T20:49:10.864Z,21.67
2022-11-13T20:52:17.013Z,21.83
2022-11-13T20:55:23.099Z,20.20
2022-11-13T20:58:29.215Z,17.20
2022-11-13T21:01:37.201Z,16.97
2022-11-13T21:04:44.652Z,21.87
2022-11-13T21:07:51.028Z,19.97
2022-11-13T21:10:56.917Z,18.00
2022-11-13T21:14:03.090Z,14.20
2022-11-13T21:17:09.238Z,16.80
2022-11-13T21:20:17.034Z,15.83
2022-11-13T21:23:23.365Z,13.90
2022-11-13T21:26:29.730Z,19.03
2022-11-13T21:29:36.018Z,16.23
2022-11-13T21:32:42.706Z,21.10
2022-11-13T21:35:50.415Z,27.53
2022-11-13T21:38:57.791Z,35.50
2022-11-13T21:42:04.250Z,34.37
2022-11-13T21:45:11.189Z,29.77
2022-11-13T21:48:17.232Z,37.87
2022-11-13T21:51:24.735Z,27.77
2022-11-13T21:54:31.039Z,24.70
2022-11-13T21:57:37.133Z,17.27
2022-11-13T22:00:43.147Z,21.37
2022-11-13T22:03:49.683Z,18.90
2022-11-13T22:06:57.496Z,18.57
2022-11-13T22:10:08.143Z,18.67
2022-11-13T22:13:15.057Z,17.77
2022-11-13T22:16:22.012Z,18.93
2022-11-13T22:19:33.483Z,18.00
2022-11-13T22:22:43.894Z,21.50
2022-11-13T22:25:52.466Z,12.37
2022-11-13T22:29:02.909Z,11.67
2022-11-13T22:32:09.510Z,14.40
2022-11-13T22:35:16.320Z,13.50
2022-11-13T22:38:24.303Z,12.43
2022-11-13T22:41:33.182Z,9.27
2022-11-13T22:44:54.954Z,14.00
2022-11-13T22:48:03.005Z,14.80
2022-11-13T22:51:11.718Z,13.07
2022-11-13T22:54:19.520Z,16.67
2022-11-13T22:57:25.606Z,15.87
2022-11-13T23:00:31.961Z,14.87
2022-11-13T23:03:39.619Z,18.27
2022-11-13T23:06:45.935Z,17.17
2022-11-13T23:09:53.843Z,15.00
2022-11-13T23:12:59.903Z,14.47
2022-11-13T23:16:06.615Z,11.90
2022-11-13T23:19:13.192Z,10.93
2022-11-13T23:22:19.449Z,12.40
2022-11-13T23:25:27.154Z,9.80
2022-11-13T23:28:33.435Z,10.50
2022-11-13T23:31:39.254Z,10.83
2022-11-13T23:35:00.603Z,10.80
2022-11-13T23:38:07.170Z,8.43
2022-11-13T23:41:15.239Z,8.23
2022-11-13T23:44:21.275Z,8.70
2022-11-13T23:47:27.702Z,10.60
2022-11-13T23:50:34.035Z,8.07
2022-11-13T23:53:40.345Z,10.63
2022-11-13T23:56:47.980Z,10.73
2022-11-13T23:59:54.537Z,10.53
